Time;durP1;ratioP1;P1;durP2;ratioP2;P2;SDS_P1;SDS_P2;PMS_P1;PMS_P2;Temp;Humidity;BMP_temperature;BMP_pressure;BME280_temperature;BME280_humidity;BME280_pressure;Samples;Min_cycle;Max_cycle;Signal;HPM_P1;HPM_P2
2024/01/20 00:00:04;;;;;;;;;;;;;;;8.63;57.00;100826.38;7365154;19;20013;-64
2024/01/20 00:02:29;;;;;;;;;;;;;;;8.64;57.07;100825.47;7363708;19;19919;-64
2024/01/20 00:04:55;;;;;;;;;;;;;;;8.65;57.31;100822.00;7367318;19;19919;-64
2024/01/20 00:07:21;;;;;;;;;;;;;;;8.67;57.25;100815.00;7368061;19;20333;-64
2024/01/20 00:09:46;;;;;;;;;;;;;;;8.67;57.64;100813.28;7367113;19;20024;-63
2024/01/20 00:12:11;;;;;;;;;;;;;;;8.70;57.37;100814.97;7362346;19;20773;-63
2024/01/20 00:14:36;;;;;;;;;;;;;;;8.71;57.74;100806.28;7359092;19;20268;-63
2024/01/20 00:17:02;;;;;;;;;;;;;;;8.72;57.71;100818.44;7366668;19;19915;-63
2024/01/20 00:19:27;;;;;;;;;;;;;;;8.74;57.86;100821.88;7345899;19;19948;-64
2024/01/20 00:21:52;;;;;;;;;;;;;;;8.76;58.05;100814.91;7354037;19;19929;-65
2024/01/20 00:24:18;;;;;;;;;;;;;;;8.76;58.12;100809.69;7369196;19;19926;-64
2024/01/20 00:26:43;;;;;;;;;;;;;;;8.78;57.85;100805.34;7351640;19;20328;-63
2024/01/20 00:29:08;;;;;;;;;;;;;;;8.78;57.86;100798.38;7374905;19;19961;-64
2024/01/20 00:31:33;;;;;;;;;;;;;;;8.79;57.90;100799.25;7363597;19;19922;-63
2024/01/20 00:33:59;;;;;;;;;;;;;;;8.81;58.22;100805.28;7363923;19;20448;-64
2024/01/20 00:36:24;;;;;;;;;;;;;;;8.82;57.92;100784.44;7365055;19;19915;-64
2024/01/20 00:38:49;;;;;;;;;;;;;;;8.84;58.22;100797.44;7364546;19;19919;-64
2024/01/20 00:41:14;;;;;;;;;;;;;;;8.83;58.24;100795.72;7361413;19;19922;-64
2024/01/20 00:43:40;;;;;;;;;;;;;;;8.86;58.47;100807.81;7365266;19;20005;-64
2024/01/20 00:46:05;;;;;;;;;;;;;;;8.87;58.04;100787.00;7361218;19;19915;-63
2024/01/20 00:48:30;;;;;;;;;;;;;;;8.88;58.43;100793.91;7363417;19;19947;-64
2024/01/20 00:50:55;;;;;;;;;;;;;;;8.90;58.62;100818.19;7359089;19;19923;-64
2024/01/20 00:53:21;;;;;;;;;;;;;;;8.92;58.49;100824.25;7364160;19;19931;-63
2024/01/20 00:55:46;;;;;;;;;;;;;;;8.93;58.60;100802.53;7355596;19;19915;-65
2024/01/20 00:58:11;;;;;;;;;;;;;;;8.94;58.66;100792.97;7364978;19;20279;-64
2024/01/20 01:00:37;;;;;;;;;;;;;;;8.96;58.73;100792.03;7363438;19;19994;-64
2024/01/20 01:03:03;;;;;;;;;;;;;;;8.96;58.50;100812.88;7360141;19;19949;-64
2024/01/20 01:05:28;;;;;;;;;;;;;;;8.98;58.52;100790.28;7360971;19;19918;-64
2024/01/20 01:07:53;;;;;;;;;;;;;;;8.99;58.72;100801.56;7365683;19;20322;-64
2024/01/20 01:10:18;;;;;;;;;;;;;;;9.00;58.49;100791.13;7364307;19;19919;-64
2024/01/20 01:12:44;;;;;;;;;;;;;;;9.00;58.90;100782.44;7369770;19;20709;-64
2024/01/20 01:15:09;;;;;;;;;;;;;;;9.01;58.88;100778.94;7368662;19;20459;-64
2024/01/20 01:17:34;;;;;;;;;;;;;;;9.01;58.87;100777.19;7364363;19;19942;-63
2024/01/20 01:20:00;;;;;;;;;;;;;;;9.00;58.80;100780.69;7361199;19;20292;-63
2024/01/20 01:22:25;;;;;;;;;;;;;;;9.00;58.86;100767.66;7367701;19;20258;-63
2024/01/20 01:24:50;;;;;;;;;;;;;;;9.01;59.06;100769.38;7368923;19;19931;-63
2024/01/20 01:27:16;;;;;;;;;;;;;;;9.00;59.20;100772.88;7366042;19;19949;-63
2024/01/20 01:29:41;;;;;;;;;;;;;;;9.01;59.38;100758.97;7358323;19;19922;-63
2024/01/20 01:32:06;;;;;;;;;;;;;;;9.02;59.37;100775.44;7364912;19;20392;-64
2024/01/20 01:34:32;;;;;;;;;;;;;;;9.02;59.31;100783.28;7361340;19;19927;-64
2024/01/20 01:36:57;;;;;;;;;;;;;;;9.02;59.78;100755.50;7366878;19;19919;-64
2024/01/20 01:39:22;;;;;;;;;;;;;;;9.02;59.75;100755.50;7357856;19;20271;-63
2024/01/20 01:41:48;;;;;;;;;;;;;;;9.03;59.74;100746.81;7365837;19;19918;-63
2024/01/20 01:44:13;;;;;;;;;;;;;;;9.03;59.72;100746.81;7359701;19;20001;-63
2024/01/20 01:46:39;;;;;;;;;;;;;;;9.04;59.59;100738.09;7364243;19;19919;-63
2024/01/20 01:49:04;;;;;;;;;;;;;;;9.04;60.06;100738.09;7361566;19;19914;-64
2024/01/20 01:51:30;;;;;;;;;;;;;;;9.05;59.83;100726.78;7353417;19;19929;-63
2024/01/20 01:53:56;;;;;;;;;;;;;;;9.04;59.96;100727.69;7361935;19;19945;-64
2024/01/20 01:56:22;;;;;;;;;;;;;;;9.05;59.85;100716.38;7366283;19;19926;-62
2024/01/20 01:58:47;;;;;;;;;;;;;;;9.05;59.97;100713.75;7358168;19;19929;-64
2024/01/20 02:01:12;;;;;;;;;;;;;;;9.07;60.34;100700.69;7370713;19;20311;-64
2024/01/20 02:03:38;;;;;;;;;;;;;;;9.06;60.13;100699.84;7375908;19;19926;-64
2024/01/20 02:06:05;;;;;;;;;;;;;;;9.07;60.33;100698.09;7370917;19;20373;-64
2024/01/20 02:08:30;;;;;;;;;;;;;;;9.03;60.33;100683.44;7368740;19;19919;-62
2024/01/20 02:10:57;;;;;;;;;;;;;;;9.02;60.58;100677.38;7369030;19;19922;-63
2024/01/20 02:13:22;;;;;;;;;;;;;;;9.08;60.30;100698.09;7369616;19;20824;-63
2024/01/20 02:15:48;;;;;;;;;;;;;;;9.08;60.39;100682.47;7372016;19;19922;-63
2024/01/20 02:18:13;;;;;;;;;;;;;;;9.09;60.15;100688.53;7367239;19;19915;-64
2024/01/20 02:20:38;;;;;;;;;;;;;;;9.09;60.12;100683.31;7368744;19;20291;-63
2024/01/20 02:23:04;;;;;;;;;;;;;;;9.09;60.62;100681.56;7366970;19;19982;-64
2024/01/20 02:25:29;;;;;;;;;;;;;;;9.09;60.77;100683.31;7364715;19;19923;-64
2024/01/20 02:27:54;;;;;;;;;;;;;;;9.13;60.58;100697.16;7368562;19;20401;-63
2024/01/20 02:30:20;;;;;;;;;;;;;;;9.12;60.62;100698.88;7369015;19;20314;-64
2024/01/20 02:32:45;;;;;;;;;;;;;;;9.09;60.70;100668.56;7369271;19;20268;-63
2024/01/20 02:35:10;;;;;;;;;;;;;;;9.16;61.16;100671.03;7366370;19;19921;-63
2024/01/20 02:37:35;;;;;;;;;;;;;;;9.07;61.37;100665.13;7370702;19;19923;-63
2024/01/20 02:40:01;;;;;;;;;;;;;;;9.15;61.17;100682.34;7368374;19;19922;-64
2024/01/20 02:42:26;;;;;;;;;;;;;;;9.14;61.20;100691.06;7368760;19;19940;-64
2024/01/20 02:44:51;;;;;;;;;;;;;;;9.10;61.52;100680.69;7370783;19;19946;-63
2024/01/20 02:47:17;;;;;;;;;;;;;;;9.10;61.63;100669.41;7370408;19;20270;-63
2024/01/20 02:49:42;;;;;;;;;;;;;;;9.06;61.43;100667.72;7363037;19;19952;-63
2024/01/20 02:52:08;;;;;;;;;;;;;;;9.02;61.74;100666.94;7366811;19;20000;-63
2024/01/20 02:54:33;;;;;;;;;;;;;;;8.99;61.60;100682.63;7366806;19;19922;-63
2024/01/20 02:56:58;;;;;;;;;;;;;;;8.94;61.99;100653.19;7364173;19;19919;-63
2024/01/20 02:59:23;;;;;;;;;;;;;;;8.91;62.82;100642.81;7358876;19;19935;-64
2024/01/20 03:01:49;;;;;;;;;;;;;;;8.87;62.59;100645.47;7368423;19;20358;-64
2024/01/20 03:04:14;;;;;;;;;;;;;;;8.83;62.69;100639.50;7369294;19;20515;-64
2024/01/20 03:06:39;;;;;;;;;;;;;;;8.80;62.73;100636.91;7364856;19;20352;-63
2024/01/20 03:09:05;;;;;;;;;;;;;;;8.77;62.83;100634.38;7368279;19;19926;-63
2024/01/20 03:11:31;;;;;;;;;;;;;;;8.73;62.68;100635.31;7368085;19;19978;-64
2024/01/20 03:13:56;;;;;;;;;;;;;;;8.71;63.43;100634.47;7370927;19;19934;-64
2024/01/20 03:16:21;;;;;;;;;;;;;;;8.69;63.26;100620.63;7361033;19;19935;-64
2024/01/20 03:18:46;;;;;;;;;;;;;;;8.67;64.17;100645.81;7366360;19;19923;-64
2024/01/20 03:21:12;;;;;;;;;;;;;;;8.65;64.47;100624.16;7358640;19;19930;-63
2024/01/20 03:23:37;;;;;;;;;;;;;;;8.58;64.45;100602.56;7369672;19;19923;-62
2024/01/20 03:26:07;;;;;;;;;;;;;;;8.61;64.59;100632.88;7372730;19;19930;-63
2024/01/20 03:28:32;;;;;;;;;;;;;;;8.59;64.83;100609.50;7368336;19;20591;-63
2024/01/20 03:30:58;;;;;;;;;;;;;;;8.55;64.67;100603.47;7366989;19;19923;-63
2024/01/20 03:33:23;;;;;;;;;;;;;;;8.52;64.51;100600.94;7369207;19;19938;-65
2024/01/20 03:35:48;;;;;;;;;;;;;;;8.47;64.74;100589.75;7363921;19;19926;-65
2024/01/20 03:38:14;;;;;;;;;;;;;;;8.44;65.04;100594.97;7364611;19;20423;-64
2024/01/20 03:40:39;;;;;;;;;;;;;;;8.41;65.81;100622.78;7367234;19;20287;-64
2024/01/20 03:43:04;;;;;;;;;;;;;;;8.37;65.20;100577.75;7376382;19;20407;-64
2024/01/20 03:45:29;;;;;;;;;;;;;;;8.35;65.86;100574.28;7369985;19;19923;-63
2024/01/20 03:47:55;;;;;;;;;;;;;;;8.32;66.66;100561.31;7374161;19;19931;-63
2024/01/20 03:50:20;;;;;;;;;;;;;;;8.30;66.67;100555.28;7364480;19;20323;-63
2024/01/20 03:52:45;;;;;;;;;;;;;;;8.27;66.68;100583.94;7364195;19;20350;-63
2024/01/20 03:55:11;;;;;;;;;;;;;;;8.25;67.32;100562.28;7363016;19;19923;-62
2024/01/20 03:57:36;;;;;;;;;;;;;;;8.23;67.58;100564.06;7357319;19;19931;-64
2024/01/20 04:00:01;;;;;;;;;;;;;;;8.22;67.69;100567.56;7364712;19;20393;-64
2024/01/20 04:02:27;;;;;;;;;;;;;;;8.19;67.58;100559.78;7367470;19;19986;-64
2024/01/20 04:04:53;;;;;;;;;;;;;;;8.19;68.34;100572.78;7363176;19;19930;-65
2024/01/20 04:07:18;;;;;;;;;;;;;;;8.17;68.42;100566.75;7361252;19;19930;-64
2024/01/20 04:09:43;;;;;;;;;;;;;;;8.16;68.90;100583.22;7364696;19;19921;-64
2024/01/20 04:12:09;;;;;;;;;;;;;;;8.16;68.56;100584.13;7366734;19;19943;-65
2024/01/20 04:14:34;;;;;;;;;;;;;;;8.15;68.92;100558.09;7363090;19;19911;-65
2024/01/20 04:16:59;;;;;;;;;;;;;;;8.15;69.45;100573.72;7349213;19;19971;-65
2024/01/20 04:19:24;;;;;;;;;;;;;;;8.14;69.18;100566.78;7343951;19;19918;-65
2024/01/20 04:21:50;;;;;;;;;;;;;;;8.13;69.63;100528.69;7361275;19;19915;-65
2024/01/20 04:24:15;;;;;;;;;;;;;;;8.02;69.69;100547.91;7364439;19;19949;-65
2024/01/20 04:26:40;;;;;;;;;;;;;;;8.10;70.39;100567.72;7359409;19;19996;-65
2024/01/20 04:29:05;;;;;;;;;;;;;;;8.10;70.79;100534.75;7363486;19;19915;-66
2024/01/20 04:31:31;;;;;;;;;;;;;;;8.10;70.66;100531.31;7360677;19;19914;-66
2024/01/20 04:33:57;;;;;;;;;;;;;;;8.08;70.64;100554.75;7373382;19;19922;-66
2024/01/20 04:36:22;;;;;;;;;;;;;;;7.97;70.76;100525.44;7371408;19;19922;-66
2024/01/20 04:38:48;;;;;;;;;;;;;;;8.07;71.51;100540.88;7371728;19;19929;-67
2024/01/20 04:41:13;;;;;;;;;;;;;;;8.06;71.23;100552.19;7359709;19;20340;-65
2024/01/20 04:43:38;;;;;;;;;;;;;;;8.05;71.78;100545.22;7365741;19;19990;-65
2024/01/20 04:46:04;;;;;;;;;;;;;;;8.04;71.48;100553.94;7365284;19;20348;-65
2024/01/20 04:48:30;;;;;;;;;;;;;;;8.04;71.73;100566.94;7363899;19;20360;-66
2024/01/20 04:50:56;;;;;;;;;;;;;;;8.03;71.95;100526.22;7362150;19;20809;-65
2024/01/20 04:53:21;;;;;;;;;;;;;;;8.01;72.08;100546.19;7367317;19;19958;-66
2024/01/20 04:55:46;;;;;;;;;;;;;;;7.96;71.93;100528.94;7367303;19;19925;-65
2024/01/20 04:58:12;;;;;;;;;;;;;;;8.01;72.47;100568.72;7365930;19;19927;-65
2024/01/20 05:00:37;;;;;;;;;;;;;;;7.99;72.93;100547.06;7363713;19;19922;-65
2024/01/20 05:03:02;;;;;;;;;;;;;;;7.98;72.67;100554.03;7364708;19;19958;-65
2024/01/20 05:05:27;;;;;;;;;;;;;;;7.97;73.04;100534.09;7360001;19;19911;-63
2024/01/20 05:07:53;;;;;;;;;;;;;;;7.97;73.31;100549.72;7370811;19;20739;-63
2024/01/20 05:10:18;;;;;;;;;;;;;;;7.94;73.19;100539.34;7360589;19;19911;-63
2024/01/20 05:12:44;;;;;;;;;;;;;;;7.93;73.04;100528.97;7366357;19;19921;-64
2024/01/20 05:15:11;;;;;;;;;;;;;;;7.93;73.24;100528.97;7363540;19;20451;-65
2024/01/20 05:17:37;;;;;;;;;;;;;;;7.90;73.44;100540.25;7371642;19;20290;-64
2024/01/20 05:20:02;;;;;;;;;;;;;;;7.89;73.24;100509.94;7364350;19;20550;-65
2024/01/20 05:22:28;;;;;;;;;;;;;;;7.88;73.54;100536.84;7364702;19;20939;-65
2024/01/20 05:24:53;;;;;;;;;;;;;;;7.87;73.69;100524.72;7363540;19;19911;-66
2024/01/20 05:27:18;;;;;;;;;;;;;;;7.87;73.56;100535.13;7353650;19;20664;-66
2024/01/20 05:29:43;;;;;;;;;;;;;;;7.87;73.86;100531.66;7359030;19;19994;-66
2024/01/20 05:32:09;;;;;;;;;;;;;;;7.88;73.70;100521.22;7362958;19;19919;-66
2024/01/20 05:34:34;;;;;;;;;;;;;;;7.89;74.17;100517.75;7366283;19;19923;-65
2024/01/20 05:36:59;;;;;;;;;;;;;;;7.91;74.14;100520.34;7372550;19;19923;-67
2024/01/20 05:39:24;;;;;;;;;;;;;;;7.91;74.49;100505.59;7372720;19;19927;-66
2024/01/20 05:41:50;;;;;;;;;;;;;;;7.92;74.21;100494.31;7372521;19;20763;-66
2024/01/20 05:44:15;;;;;;;;;;;;;;;7.95;74.64;100498.59;7365058;19;20753;-66
2024/01/20 05:46:40;;;;;;;;;;;;;;;7.96;74.44;100508.13;7371460;19;19935;-66
2024/01/20 05:49:06;;;;;;;;;;;;;;;7.99;74.41;100490.72;7372486;19;19929;-66
2024/01/20 05:51:31;;;;;;;;;;;;;;;8.00;74.58;100500.25;7362285;19;19918;-66
2024/01/20 05:53:57;;;;;;;;;;;;;;;8.02;74.41;100490.69;7378433;19;19926;-66
2024/01/20 05:56:23;;;;;;;;;;;;;;;8.04;74.51;100495.84;7357605;19;20382;-65
2024/01/20 05:58:48;;;;;;;;;;;;;;;8.05;74.35;100506.22;7367781;19;19914;-66
2024/01/20 06:01:15;;;;;;;;;;;;;;;8.07;74.74;100512.28;7369370;19;20255;-66
2024/01/20 06:03:40;;;;;;;;;;;;;;;8.10;74.68;100506.16;7367026;19;19930;-66
2024/01/20 06:06:06;;;;;;;;;;;;;;;8.12;74.46;100508.75;7369536;19;20367;-66
2024/01/20 06:08:31;;;;;;;;;;;;;;;8.13;74.70;100495.72;7371380;19;19923;-66
2024/01/20 06:10:56;;;;;;;;;;;;;;;8.16;75.17;100505.19;7365689;19;19926;-66
2024/01/20 06:13:21;;;;;;;;;;;;;;;8.18;75.02;100508.66;7374053;19;19930;-68
2024/01/20 06:15:47;;;;;;;;;;;;;;;8.21;74.63;100503.38;7376890;19;20328;-67
2024/01/20 06:18:12;;;;;;;;;;;;;;;8.22;74.76;100525.94;7374440;19;19940;-67
2024/01/20 06:20:37;;;;;;;;;;;;;;;8.25;74.84;100505.06;7369316;19;19947;-66
2024/01/20 06:23:03;;;;;;;;;;;;;;;8.26;74.73;100533.66;7370059;19;19927;-67
2024/01/20 06:25:28;;;;;;;;;;;;;;;8.30;75.01;100511.03;7370160;19;19919;-67
2024/01/20 06:27:53;;;;;;;;;;;;;;;8.32;75.19;100502.34;7375757;19;19991;-66
2024/01/20 06:30:18;;;;;;;;;;;;;;;8.35;74.95;100488.41;7370591;19;19918;-67
2024/01/20 06:32:44;;;;;;;;;;;;;;;8.38;75.30;100506.63;7372888;19;19947;-67
2024/01/20 06:35:09;;;;;;;;;;;;;;;8.40;75.29;100510.03;7370013;19;20697;-67
2024/01/20 06:37:34;;;;;;;;;;;;;;;8.43;75.19;100512.59;7367388;19;19946;-67
2024/01/20 06:39:59;;;;;;;;;;;;;;;8.45;74.78;100482.19;7365929;19;20634;-67
2024/01/20 06:42:25;;;;;;;;;;;;;;;8.47;75.02;100509.06;7364690;19;19919;-67
2024/01/20 06:44:51;;;;;;;;;;;;;;;8.48;74.82;100500.38;7368881;19;19990;-67
2024/01/20 06:47:16;;;;;;;;;;;;;;;8.52;74.78;100504.66;7369997;19;19915;-67
2024/01/20 06:49:42;;;;;;;;;;;;;;;8.55;75.07;100519.34;7369125;19;19925;-67
2024/01/20 06:52:07;;;;;;;;;;;;;;;8.56;75.01;100511.47;7368378;19;20313;-68
2024/01/20 06:54:32;;;;;;;;;;;;;;;8.59;75.29;100513.19;7362536;19;20402;-67
2024/01/20 06:56:58;;;;;;;;;;;;;;;8.61;74.74;100508.81;7368317;19;19915;-68
2024/01/20 06:59:23;;;;;;;;;;;;;;;8.63;75.21;100516.59;7362092;19;19933;-67
2024/01/20 07:01:48;;;;;;;;;;;;;;;8.64;75.22;100521.78;7367910;19;20006;-67
2024/01/20 07:04:13;;;;;;;;;;;;;;;8.67;75.35;100532.16;7367651;19;19915;-68
2024/01/20 07:06:39;;;;;;;;;;;;;;;8.70;74.97;100544.25;7367282;19;19940;-68
2024/01/20 07:09:05;;;;;;;;;;;;;;;8.72;75.21;100516.44;7368672;19;19919;-68
2024/01/20 07:11:31;;;;;;;;;;;;;;;8.74;75.27;100515.53;7364773;19;19919;-67
2024/01/20 07:13:57;;;;;;;;;;;;;;;8.77;75.27;100527.63;7372981;19;20031;-68
2024/01/20 07:16:22;;;;;;;;;;;;;;;8.78;75.00;100542.38;7366685;19;19919;-68
2024/01/20 07:18:47;;;;;;;;;;;;;;;8.75;74.86;100529.41;7367481;19;19931;-67
2024/01/20 07:21:13;;;;;;;;;;;;;;;8.83;75.37;100545.75;7368723;19;19940;-67
2024/01/20 07:23:39;;;;;;;;;;;;;;;8.84;75.21;100531.84;7372669;19;19922;-68
2024/01/20 07:26:04;;;;;;;;;;;;;;;8.88;74.95;100528.28;7373367;19;19931;-68
2024/01/20 07:28:29;;;;;;;;;;;;;;;8.90;74.95;100516.09;7361137;19;19926;-68
2024/01/20 07:30:55;;;;;;;;;;;;;;;8.92;75.22;100524.75;7369215;19;19918;-68
2024/01/20 07:33:20;;;;;;;;;;;;;;;8.94;75.37;100522.13;7367204;19;19943;-68
2024/01/20 07:35:46;;;;;;;;;;;;;;;8.95;75.18;100519.47;7367237;19;19915;-68
2024/01/20 07:38:12;;;;;;;;;;;;;;;8.97;75.12;100520.31;7363070;19;19927;-68
2024/01/20 07:40:37;;;;;;;;;;;;;;;8.99;75.09;100520.28;7366515;19;19942;-69
2024/01/20 07:43:03;;;;;;;;;;;;;;;8.99;75.10;100526.34;7375496;19;20300;-68
2024/01/20 07:45:28;;;;;;;;;;;;;;;9.01;75.08;100526.31;7375302;19;19923;-68
2024/01/20 07:47:54;;;;;;;;;;;;;;;9.00;75.37;100530.66;7366993;19;19918;-68
2024/01/20 07:50:19;;;;;;;;;;;;;;;9.01;74.77;100537.56;7368006;19;19950;-68
2024/01/20 07:52:44;;;;;;;;;;;;;;;9.02;75.20;100541.94;7367833;19;19998;-68
2024/01/20 07:55:10;;;;;;;;;;;;;;;9.02;75.10;100526.28;7362646;19;19923;-68
2024/01/20 07:57:35;;;;;;;;;;;;;;;9.04;75.16;100540.13;7364744;19;20345;-68
2024/01/20 08:00:00;;;;;;;;;;;;;;;9.04;75.02;100534.94;7363172;19;19944;-68
2024/01/20 08:02:25;;;;;;;;;;;;;;;9.03;75.30;100533.22;7357615;19;19915;-68
2024/01/20 08:04:51;;;;;;;;;;;;;;;9.04;74.86;100529.72;7364341;19;19926;-67
2024/01/20 08:07:16;;;;;;;;;;;;;;;9.04;75.12;100524.50;7361639;19;19923;-68
2024/01/20 08:09:41;;;;;;;;;;;;;;;9.05;75.30;100525.38;7361342;19;19922;-68
2024/01/20 08:12:06;;;;;;;;;;;;;;;9.06;75.16;100537.50;7364403;19;19930;-68
2024/01/20 08:14:32;;;;;;;;;;;;;;;9.05;75.53;100541.84;7359401;19;19926;-68
2024/01/20 08:16:57;;;;;;;;;;;;;;;9.06;75.45;100546.16;7331318;19;19919;-68
2024/01/20 08:19:22;;;;;;;;;;;;;;;9.07;75.17;100555.72;7363554;19;19919;-68
2024/01/20 08:21:47;;;;;;;;;;;;;;;9.08;75.05;100551.38;7360531;19;19915;-68
2024/01/20 08:24:13;;;;;;;;;;;;;;;9.08;75.26;100557.44;7365701;19;19998;-68
2024/01/20 08:26:38;;;;;;;;;;;;;;;9.10;75.87;100547.81;7366600;19;20297;-67
2024/01/20 08:29:03;;;;;;;;;;;;;;;9.10;75.13;100532.19;7365908;19;19919;-67
2024/01/20 08:31:28;;;;;;;;;;;;;;;9.13;75.28;100546.06;7364636;19;19919;-67
2024/01/20 08:33:54;;;;;;;;;;;;;;;9.15;75.38;100546.88;7370030;19;19923;-67
2024/01/20 08:36:19;;;;;;;;;;;;;;;9.16;75.43;100549.44;7371092;19;19931;-67
2024/01/20 08:38:45;;;;;;;;;;;;;;;9.17;75.48;100561.59;7367183;19;19936;-68
2024/01/20 08:41:10;;;;;;;;;;;;;;;9.17;75.31;100540.75;7357133;19;20345;-67
2024/01/20 08:43:37;;;;;;;;;;;;;;;9.20;75.27;100540.69;7358916;19;19915;-68
2024/01/20 08:46:03;;;;;;;;;;;;;;;9.21;75.82;100551.97;7353180;19;19955;-67
2024/01/20 08:48:29;;;;;;;;;;;;;;;9.24;75.93;100531.09;7364799;19;19918;-68
2024/01/20 08:50:54;;;;;;;;;;;;;;;9.25;75.80;100556.25;7361797;19;19930;-68
2024/01/20 08:53:19;;;;;;;;;;;;;;;9.25;75.49;100538.00;7360792;19;19923;-68
2024/01/20 08:55:45;;;;;;;;;;;;;;;9.27;75.43;100546.63;7361969;19;19919;-67
2024/01/20 08:58:10;;;;;;;;;;;;;;;9.26;75.69;100535.34;7356596;19;19915;-67
2024/01/20 09:00:35;;;;;;;;;;;;;;;9.29;75.83;100550.09;7361389;19;19915;-67
2024/01/20 09:03:00;;;;;;;;;;;;;;;9.31;75.89;100561.31;7365885;19;19918;-67
2024/01/20 09:05:26;;;;;;;;;;;;;;;9.33;75.69;100541.31;7361356;19;19936;-68
2024/01/20 09:07:51;;;;;;;;;;;;;;;9.35;75.96;100535.19;7363989;19;21359;-67
2024/01/20 09:10:16;;;;;;;;;;;;;;;9.39;75.81;100514.28;7366390;19;19927;-68
2024/01/20 09:12:41;;;;;;;;;;;;;;;9.41;76.02;100547.22;7368261;19;19919;-68
2024/01/20 09:15:07;;;;;;;;;;;;;;;9.46;76.17;100534.94;7368974;19;20018;-67
2024/01/20 09:17:32;;;;;;;;;;;;;;;9.48;76.04;100541.00;7374753;19;19919;-67
2024/01/20 09:19:57;;;;;;;;;;;;;;;9.52;76.40;100542.63;7365320;19;20720;-67
2024/01/20 09:22:23;;;;;;;;;;;;;;;9.55;76.45;100524.34;7369598;19;20510;-67
2024/01/20 09:24:48;;;;;;;;;;;;;;;9.60;76.06;100509.47;7370494;19;20614;-67
2024/01/20 09:27:14;;;;;;;;;;;;;;;9.64;76.27;100540.69;7370814;19;19915;-67
2024/01/20 09:29:39;;;;;;;;;;;;;;;9.69;76.48;100533.63;7369396;19;19919;-67
2024/01/20 09:32:04;;;;;;;;;;;;;;;9.71;76.34;100524.00;7371428;19;20568;-67
2024/01/20 09:34:30;;;;;;;;;;;;;;;9.74;76.28;100531.78;7368016;19;19925;-67
2024/01/20 09:36:55;;;;;;;;;;;;;;;9.78;75.91;100533.41;7366993;19;19914;-67
2024/01/20 09:39:20;;;;;;;;;;;;;;;9.79;75.95;100535.16;7369718;19;19929;-67
2024/01/20 09:41:46;;;;;;;;;;;;;;;9.83;76.08;100536.75;7370005;19;19919;-67
2024/01/20 09:44:12;;;;;;;;;;;;;;;9.86;76.21;100531.50;7367422;19;19918;-67
2024/01/20 09:46:38;;;;;;;;;;;;;;;9.89;76.33;100541.88;7366680;19;20488;-67
2024/01/20 09:49:03;;;;;;;;;;;;;;;9.92;76.01;100533.94;7372151;19;19947;-67
2024/01/20 09:51:29;;;;;;;;;;;;;;;9.97;76.18;100570.38;7365831;19;19918;-67
2024/01/20 09:53:58;;;;;;;;;;;;;;;9.98;76.24;100557.28;7367409;19;19931;-67
2024/01/20 09:56:23;;;;;;;;;;;;;;;10.01;76.52;100545.94;7363529;19;19934;-67
2024/01/20 09:58:49;;;;;;;;;;;;;;;10.04;76.11;100545.88;7372294;19;19922;-67
2024/01/20 10:01:16;;;;;;;;;;;;;;;10.06;76.44;100546.69;7368021;19;20605;-67
2024/01/20 10:03:42;;;;;;;;;;;;;;;10.07;76.13;100536.22;7367493;19;20749;-67
2024/01/20 10:06:07;;;;;;;;;;;;;;;10.11;76.19;100532.66;7368635;19;20564;-67
2024/01/20 10:08:32;;;;;;;;;;;;;;;10.12;76.11;100539.56;7378681;19;19931;-67
2024/01/20 10:11:02;;;;;;;;;;;;;;;10.14;76.33;100537.81;7375666;19;19930;-67
2024/01/20 10:13:28;;;;;;;;;;;;;;;10.18;76.43;100545.53;7379410;19;20020;-67
2024/01/20 10:15:53;;;;;;;;;;;;;;;10.20;76.11;100525.50;7369205;19;19930;-67
2024/01/20 10:18:19;;;;;;;;;;;;;;;10.21;75.89;100537.66;7370186;19;19922;-66
2024/01/20 10:20:44;;;;;;;;;;;;;;;10.23;76.24;100536.69;7362044;19;19927;-67
2024/01/20 10:23:09;;;;;;;;;;;;;;;10.25;76.33;100534.97;7369162;19;19914;-67
2024/01/20 10:25:35;;;;;;;;;;;;;;;10.27;76.38;100529.69;7366816;19;19939;-66
2024/01/20 10:28:00;;;;;;;;;;;;;;;10.29;76.11;100536.63;7369761;19;19926;-67
2024/01/20 10:30:26;;;;;;;;;;;;;;;10.30;76.04;100538.31;7370555;19;20363;-66
2024/01/20 10:32:51;;;;;;;;;;;;;;;10.32;76.34;100536.53;7369046;19;19934;-67
2024/01/20 10:35:17;;;;;;;;;;;;;;;10.34;75.97;100528.66;7369345;19;19918;-67
2024/01/20 10:37:44;;;;;;;;;;;;;;;10.36;75.93;100525.13;7364801;19;19911;-66
2024/01/20 10:40:12;;;;;;;;;;;;;;;10.38;76.32;100533.75;7365369;19;20039;-67
2024/01/20 10:42:41;;;;;;;;;;;;;;;10.40;75.93;100512.84;7369370;19;19958;-67
2024/01/20 10:45:11;;;;;;;;;;;;;;;10.45;76.39;100510.13;7364160;19;20603;-66
2024/01/20 10:47:53;;;;;;;;;;;;;;;10.48;76.16;100516.13;7369277;19;19918;-67
2024/01/20 10:50:20;;;;;;;;;;;;;;;10.51;76.57;100505.59;7365377;19;19934;-67
2024/01/20 10:52:46;;;;;;;;;;;;;;;10.56;76.56;100513.31;7366759;19;19927;-66
2024/01/20 10:55:12;;;;;;;;;;;;;;;10.58;76.68;100517.59;7363722;19;19946;-66
2024/01/20 10:57:37;;;;;;;;;;;;;;;10.63;76.53;100505.28;7363696;19;19942;-66
2024/01/20 11:00:07;;;;;;;;;;;;;;;10.67;76.66;100508.69;7363757;19;20366;-67
2024/01/20 11:02:34;;;;;;;;;;;;;;;10.72;76.45;100498.09;7364213;19;19926;-66
2024/01/20 11:04:59;;;;;;;;;;;;;;;10.76;76.32;100498.00;7366214;19;19915;-66
2024/01/20 11:07:26;;;;;;;;;;;;;;;10.79;76.39;100494.44;7369456;19;20296;-66
2024/01/20 11:09:59;;;;;;;;;;;;;;;10.82;76.19;100494.34;7366940;19;20339;-66
2024/01/20 11:12:25;;;;;;;;;;;;;;;10.86;76.41;100506.44;7370576;19;20714;-66
2024/01/20 11:14:51;;;;;;;;;;;;;;;10.89;76.67;100511.56;7363884;19;19961;-66
2024/01/20 11:17:17;;;;;;;;;;;;;;;10.91;76.50;100494.09;7362867;19;19918;-67
2024/01/20 11:19:43;;;;;;;;;;;;;;;10.93;76.44;100497.53;7351336;19;19915;-67
2024/01/20 11:22:26;;;;;;;;;;;;;;;10.95;76.51;100482.69;7352077;19;20267;-66
2024/01/20 11:24:52;;;;;;;;;;;;;;;10.98;76.14;100482.56;7367847;19;19926;-66
2024/01/20 11:27:17;;;;;;;;;;;;;;;11.00;76.42;100474.69;7367340;19;20708;-66
2024/01/20 11:29:42;;;;;;;;;;;;;;;11.02;76.18;100485.97;7368595;19;20396;-66
2024/01/20 11:32:08;;;;;;;;;;;;;;;11.03;76.13;100472.84;7364566;19;19914;-66
2024/01/20 11:34:33;;;;;;;;;;;;;;;11.07;76.55;100478.88;7364653;19;19943;-66
2024/01/20 11:36:59;;;;;;;;;;;;;;;11.08;76.22;100460.50;7369560;19;19919;-66
2024/01/20 11:39:25;;;;;;;;;;;;;;;11.09;76.59;100475.28;7365615;19;19918;-66
2024/01/20 11:42:00;;;;;;;;;;;;;;;11.14;76.28;100456.88;7364694;19;19930;-66
2024/01/20 11:44:27;;;;;;;;;;;;;;;11.16;76.20;100455.94;7366070;19;20650;-66
2024/01/20 11:46:53;;;;;;;;;;;;;;;11.21;76.43;100449.72;7364826;19;20018;-66
2024/01/20 11:49:18;;;;;;;;;;;;;;;11.23;76.37;100440.06;7366682;19;19994;-66
2024/01/20 11:51:43;;;;;;;;;;;;;;;11.28;76.46;100446.00;7364309;19;19926;-66
2024/01/20 11:54:08;;;;;;;;;;;;;;;11.30;76.58;100444.19;7363378;19;20339;-66
2024/01/20 11:56:34;;;;;;;;;;;;;;;11.32;76.58;100426.72;7362783;19;19919;-66
2024/01/20 11:58:59;;;;;;;;;;;;;;;11.35;76.32;100432.72;7364134;19;20274;-66
2024/01/20 12:01:24;;;;;;;;;;;;;;;11.37;76.55;100425.69;7363874;19;19918;-66
2024/01/20 12:03:49;;;;;;;;;;;;;;;11.39;76.26;100428.25;7366589;19;20019;-66
2024/01/20 12:06:15;;;;;;;;;;;;;;;11.39;76.34;100423.88;7365872;19;19923;-66
2024/01/20 12:08:42;;;;;;;;;;;;;;;11.39;76.07;100418.63;7358989;19;20249;-66
2024/01/20 12:11:07;;;;;;;;;;;;;;;11.41;76.31;100416.00;7365610;19;19969;-66
2024/01/20 12:13:34;;;;;;;;;;;;;;;11.43;76.45;100403.72;7363676;19;20401;-66
2024/01/20 12:15:59;;;;;;;;;;;;;;;11.47;76.55;100423.66;7360094;19;21615;-66
2024/01/20 12:18:25;;;;;;;;;;;;;;;11.49;76.17;100390.44;7365696;19;20362;-66
2024/01/20 12:20:50;;;;;;;;;;;;;;;11.51;76.17;100425.28;7364125;19;19907;-66
2024/01/20 12:23:17;;;;;;;;;;;;;;;11.54;76.57;100395.53;7361158;19;19919;-67
2024/01/20 12:25:42;;;;;;;;;;;;;;;11.55;76.39;100392.88;7363671;19;19978;-66
2024/01/20 12:28:07;;;;;;;;;;;;;;;11.57;76.11;100411.16;7361768;19;20025;-66
2024/01/20 12:30:32;;;;;;;;;;;;;;;11.58;76.42;100377.09;7364254;19;19918;-66
2024/01/20 12:32:58;;;;;;;;;;;;;;;11.59;76.19;100372.72;7365881;19;19918;-66
2024/01/20 12:35:23;;;;;;;;;;;;;;;11.59;76.03;100376.19;7366957;19;20703;-65